createdAt,value
2022-10-31T00:01:03.666Z,77.70
2022-10-31T00:03:07.050Z,77.90
2022-10-31T00:05:10.981Z,77.90
2022-10-31T00:07:14.748Z,78.10
2022-10-31T00:09:18.112Z,78.00
2022-10-31T00:11:41.830Z,78.20
2022-10-31T00:13:45.125Z,78.90
2022-10-31T00:15:49.980Z,78.50
2022-10-31T00:17:59.382Z,78.60
2022-10-31T00:20:02.805Z,78.70
2022-10-31T00:22:06.006Z,78.90
2022-10-31T00:24:09.843Z,79.00
2022-10-31T00:26:13.594Z,79.10
2022-10-31T00:28:16.894Z,78.90
2022-10-31T00:30:20.311Z,78.70
2022-10-31T00:32:25.080Z,78.90
2022-10-31T00:34:28.682Z,78.90
2022-10-31T00:36:32.467Z,79.20
2022-10-31T00:38:36.042Z,79.50
2022-10-31T00:40:39.470Z,79.60
2022-10-31T00:42:43.844Z,79.80
2022-10-31T00:44:47.106Z,80.00
2022-10-31T00:46:50.639Z,79.60
2022-10-31T00:48:56.031Z,79.30
2022-10-31T00:50:59.810Z,79.50
2022-10-31T00:53:05.748Z,79.40
2022-10-31T00:55:09.644Z,79.20
2022-10-31T00:57:13.091Z,79.20
2022-10-31T00:59:16.509Z,79.10
2022-10-31T01:01:20.275Z,78.70
2022-10-31T01:03:25.000Z,78.60
2022-10-31T01:05:35.668Z,78.90
2022-10-31T01:07:40.684Z,78.90
2022-10-31T01:09:44.247Z,79.10
2022-10-31T01:11:47.970Z,78.70
2022-10-31T01:13:54.258Z,78.80
2022-10-31T01:15:58.169Z,79.00
2022-10-31T01:18:01.877Z,79.40
2022-10-31T01:20:07.828Z,79.80
2022-10-31T01:22:12.432Z,80.10
2022-10-31T01:24:15.607Z,80.20
2022-10-31T01:26:20.755Z,80.20
2022-10-31T01:30:27.448Z,80.00
2022-10-31T01:32:30.957Z,79.80
2022-10-31T01:34:34.325Z,80.00
2022-10-31T01:36:39.780Z,80.60
2022-10-31T01:38:45.026Z,79.90
2022-10-31T01:40:48.664Z,79.60
2022-10-31T01:42:52.137Z,80.30
2022-10-31T01:45:06.305Z,79.60
2022-10-31T01:47:15.881Z,79.70
2022-10-31T01:49:36.629Z,79.70
2022-10-31T01:51:44.282Z,79.50
2022-10-31T01:53:50.170Z,80.30
2022-10-31T01:55:53.862Z,79.50
2022-10-31T01:58:02.533Z,79.40
2022-10-31T02:00:10.201Z,79.70
2022-10-31T02:02:15.315Z,80.20
2022-10-31T02:04:19.735Z,79.50
2022-10-31T02:06:33.438Z,80.40
2022-10-31T02:08:38.404Z,79.70
2022-10-31T02:10:44.614Z,79.60
2022-10-31T02:12:49.810Z,80.00
2022-10-31T02:14:53.728Z,80.20
2022-10-31T02:16:57.857Z,79.80
2022-10-31T02:19:01.322Z,79.60
2022-10-31T02:21:11.369Z,79.90
2022-10-31T02:23:47.875Z,80.10
2022-10-31T02:26:17.725Z,80.30
2022-10-31T02:28:41.123Z,80.00
2022-10-31T02:31:03.970Z,80.00
2022-10-31T02:33:22.613Z,80.20
2022-10-31T02:35:43.081Z,80.20
2022-10-31T02:37:53.178Z,80.20
2022-10-31T02:40:03.536Z,80.20
2022-10-31T02:42:11.181Z,80.50
2022-10-31T02:44:21.895Z,80.60
2022-10-31T02:46:34.562Z,80.70
2022-10-31T02:48:41.116Z,81.30
2022-10-31T02:50:49.810Z,81.40
2022-10-31T02:52:53.641Z,81.20
2022-10-31T02:54:56.702Z,81.20
2022-10-31T02:57:05.325Z,81.00
2022-10-31T02:59:08.246Z,81.20
2022-10-31T03:01:35.247Z,81.00
2022-10-31T03:03:50.375Z,81.00
2022-10-31T03:06:02.516Z,81.30
2022-10-31T03:08:10.204Z,81.20
2022-10-31T03:10:19.339Z,81.20
2022-10-31T03:12:30.559Z,81.10
2022-10-31T03:14:40.185Z,81.20
2022-10-31T03:16:49.088Z,81.30
2022-10-31T03:18:59.980Z,81.10
2022-10-31T03:21:08.038Z,81.00
2022-10-31T03:23:15.620Z,81.00
2022-10-31T03:25:19.595Z,81.00
2022-10-31T03:27:26.011Z,81.10
2022-10-31T03:29:33.307Z,80.70
2022-10-31T03:31:40.892Z,80.70
2022-10-31T03:33:46.386Z,80.60
2022-10-31T03:35:55.429Z,80.70
2022-10-31T03:38:04.187Z,80.80
2022-10-31T03:40:12.062Z,80.80
2022-10-31T03:42:17.915Z,80.80
2022-10-31T03:44:24.161Z,80.90
2022-10-31T03:46:27.612Z,80.90
2022-10-31T03:48:30.704Z,81.00
2022-10-31T03:50:42.106Z,81.00
2022-10-31T03:52:50.642Z,81.00
2022-10-31T03:54:58.731Z,80.90
2022-10-31T03:57:07.337Z,81.00
2022-10-31T03:59:15.272Z,80.80
2022-10-31T04:01:20.298Z,80.80
2022-10-31T04:03:27.335Z,81.00
2022-10-31T04:05:31.906Z,81.00
2022-10-31T04:07:40.020Z,81.10
2022-10-31T04:09:48.156Z,81.00
2022-10-31T04:11:54.976Z,81.30
2022-10-31T04:14:00.290Z,81.70
2022-10-31T04:16:03.497Z,81.90
2022-10-31T04:18:07.752Z,82.10
2022-10-31T04:20:11.326Z,81.90
2022-10-31T04:22:14.501Z,82.00
2022-10-31T04:24:17.385Z,81.70
2022-10-31T04:26:21.726Z,81.50
2022-10-31T04:28:24.937Z,81.70
2022-10-31T04:30:27.908Z,81.50
2022-10-31T04:32:30.714Z,81.70
2022-10-31T04:34:33.566Z,81.40
2022-10-31T04:36:36.410Z,81.40
2022-10-31T04:38:39.353Z,81.50
2022-10-31T04:40:42.165Z,81.70
2022-10-31T04:42:46.858Z,81.90
2022-10-31T04:44:49.704Z,81.80
2022-10-31T04:46:52.513Z,81.60
2022-10-31T04:48:55.568Z,81.60
2022-10-31T04:51:01.648Z,81.90
2022-10-31T04:53:04.543Z,82.70
2022-10-31T04:55:08.264Z,82.90
2022-10-31T04:57:11.066Z,83.00
2022-10-31T04:59:15.276Z,82.70
2022-10-31T05:01:18.166Z,82.60
2022-10-31T05:03:21.472Z,82.40
2022-10-31T05:05:27.067Z,82.20
2022-10-31T05:07:29.946Z,82.20
2022-10-31T05:09:32.785Z,81.90
2022-10-31T05:11:35.608Z,81.90
2022-10-31T05:13:38.534Z,81.80
2022-10-31T05:15:42.706Z,82.50
2022-10-31T05:17:45.766Z,83.00
2022-10-31T05:19:48.615Z,83.50
2022-10-31T05:21:51.422Z,83.50
2022-10-31T05:23:54.270Z,83.40
2022-10-31T05:25:57.150Z,83.00
2022-10-31T05:28:00.366Z,82.90
2022-10-31T05:30:03.563Z,83.00
2022-10-31T05:32:07.751Z,82.90
2022-10-31T05:34:10.721Z,83.00
2022-10-31T05:36:13.588Z,83.70
2022-10-31T05:38:16.465Z,83.70
2022-10-31T05:40:20.757Z,83.50
2022-10-31T05:42:23.660Z,83.00
2022-10-31T05:44:26.517Z,82.80
2022-10-31T05:46:29.462Z,83.10
2022-10-31T05:48:33.720Z,83.30
2022-10-31T05:50:36.535Z,83.60
2022-10-31T05:52:39.459Z,83.60
2022-10-31T05:54:42.355Z,83.40
2022-10-31T05:56:45.237Z,83.10
2022-10-31T05:58:48.057Z,83.00
2022-10-31T06:00:50.934Z,82.90
2022-10-31T06:03:00.263Z,82.80
2022-10-31T06:05:05.085Z,82.80
2022-10-31T06:07:08.031Z,82.80
2022-10-31T06:09:10.893Z,82.80
2022-10-31T06:11:13.915Z,82.60
2022-10-31T06:13:16.818Z,82.50
2022-10-31T06:15:24.079Z,82.40
2022-10-31T06:17:27.676Z,82.30
2022-10-31T06:19:30.528Z,82.20
2022-10-31T06:21:34.720Z,82.20
2022-10-31T06:23:37.617Z,82.30
2022-10-31T06:25:40.540Z,82.30
2022-10-31T06:27:43.404Z,82.20
2022-10-31T06:29:47.364Z,82.10
2022-10-31T06:31:52.733Z,82.20
2022-10-31T06:33:55.705Z,82.50
2022-10-31T06:35:58.751Z,82.80
2022-10-31T06:38:03.551Z,83.30
2022-10-31T06:40:07.668Z,83.70
2022-10-31T06:42:10.472Z,84.20
2022-10-31T06:44:13.365Z,84.40
2022-10-31T06:46:16.237Z,84.50
2022-10-31T06:48:19.804Z,84.40
2022-10-31T06:50:23.329Z,84.50
2022-10-31T06:52:26.213Z,84.30
2022-10-31T06:54:30.497Z,84.10
2022-10-31T06:56:33.368Z,83.90
2022-10-31T06:58:36.249Z,84.00
2022-10-31T07:00:39.264Z,84.50
2022-10-31T07:02:42.165Z,84.80
2022-10-31T07:04:45.023Z,84.90
2022-10-31T07:06:51.755Z,84.70
2022-10-31T07:08:54.954Z,84.60
2022-10-31T07:10:59.675Z,84.50
2022-10-31T07:13:04.660Z,84.40
2022-10-31T07:15:08.691Z,84.50
2022-10-31T07:17:11.617Z,84.50
2022-10-31T07:19:14.516Z,84.40
2022-10-31T07:21:17.420Z,84.40
2022-10-31T07:23:20.554Z,84.40
2022-10-31T07:25:23.454Z,84.50
2022-10-31T07:27:27.641Z,84.60
2022-10-31T07:29:30.529Z,84.60
2022-10-31T07:31:33.372Z,84.60
2022-10-31T07:33:36.281Z,84.50
2022-10-31T07:35:39.202Z,84.30
2022-10-31T07:37:42.074Z,84.40
2022-10-31T07:39:44.997Z,84.50
2022-10-31T07:41:47.958Z,84.50
2022-10-31T07:45:59.908Z,84.80
2022-10-31T07:48:03.419Z,84.70
2022-10-31T07:50:07.369Z,84.90
2022-10-31T07:52:10.574Z,85.00
2022-10-31T07:54:13.935Z,85.20
2022-10-31T07:56:16.776Z,85.50
2022-10-31T07:58:19.995Z,85.50
2022-10-31T08:00:24.233Z,85.80
2022-10-31T08:02:27.761Z,86.20
2022-10-31T08:04:30.674Z,86.20
2022-10-31T08:06:35.319Z,86.10
2022-10-31T08:08:38.567Z,86.20
2022-10-31T08:10:41.648Z,86.30
2022-10-31T08:12:44.537Z,86.40
2022-10-31T08:14:47.418Z,86.30
2022-10-31T08:16:51.689Z,86.60
2022-10-31T08:18:56.716Z,86.60
2022-10-31T08:20:59.912Z,86.60
2022-10-31T08:23:04.962Z,86.40
2022-10-31T08:25:08.311Z,86.60
2022-10-31T08:27:11.747Z,86.70
2022-10-31T08:29:15.464Z,86.60
2022-10-31T08:31:18.446Z,86.60
2022-10-31T08:33:22.770Z,86.40
2022-10-31T08:35:25.634Z,86.40
2022-10-31T08:37:28.491Z,86.60
2022-10-31T08:39:31.475Z,86.60
2022-10-31T08:41:34.677Z,86.90
2022-10-31T08:43:37.579Z,87.10
2022-10-31T08:45:41.227Z,86.90
2022-10-31T08:47:44.189Z,87.00
2022-10-31T08:49:48.468Z,86.90
2022-10-31T08:51:51.382Z,87.00
2022-10-31T08:53:54.270Z,86.90
2022-10-31T08:55:57.964Z,86.70
2022-10-31T08:58:01.229Z,86.80
2022-10-31T09:00:05.344Z,86.70
2022-10-31T09:02:09.874Z,86.90
2022-10-31T09:04:12.858Z,86.80
2022-10-31T09:06:17.381Z,87.00
2022-10-31T09:08:20.428Z,86.80
2022-10-31T09:10:23.330Z,86.90
2022-10-31T09:12:26.605Z,86.90
2022-10-31T09:14:29.890Z,87.10
2022-10-31T09:16:32.762Z,87.20
2022-10-31T09:18:35.847Z,87.90
2022-10-31T09:20:40.205Z,87.30
2022-10-31T09:22:44.523Z,87.40
2022-10-31T09:24:47.385Z,87.40
2022-10-31T09:26:50.243Z,87.40
2022-10-31T09:28:53.125Z,87.50
2022-10-31T09:30:56.618Z,87.40
2022-10-31T09:33:00.563Z,87.60
2022-10-31T09:35:03.492Z,87.40
2022-10-31T09:37:06.780Z,87.20
2022-10-31T09:39:11.037Z,87.30
2022-10-31T09:41:24.052Z,87.40
2022-10-31T09:43:34.766Z,87.40
2022-10-31T09:45:44.242Z,87.20
2022-10-31T09:48:00.140Z,87.30
2022-10-31T09:50:16.466Z,87.50
2022-10-31T09:52:22.968Z,87.40
2022-10-31T09:54:32.049Z,87.60
2022-10-31T09:56:36.654Z,87.50
2022-10-31T09:58:45.141Z,87.50
2022-10-31T10:00:49.191Z,87.70
2022-10-31T10:03:00.177Z,87.50
2022-10-31T10:05:05.711Z,87.30
2022-10-31T10:07:19.746Z,87.60
2022-10-31T10:09:27.055Z,87.80
2022-10-31T10:11:42.761Z,87.60
2022-10-31T10:13:59.738Z,87.70
2022-10-31T10:16:18.146Z,87.70
2022-10-31T10:18:31.607Z,87.80
2022-10-31T10:20:39.996Z,87.80
2022-10-31T10:22:48.470Z,87.50
2022-10-31T10:25:03.858Z,87.60
2022-10-31T10:27:23.548Z,87.60
2022-10-31T10:29:37.342Z,87.60
2022-10-31T10:31:47.025Z,87.50
2022-10-31T10:34:00.162Z,87.60
2022-10-31T10:36:07.306Z,87.60
2022-10-31T10:38:19.422Z,87.60
2022-10-31T10:40:26.870Z,87.70
2022-10-31T10:42:54.419Z,87.70
2022-10-31T10:45:14.814Z,87.60
2022-10-31T10:47:35.113Z,87.80
2022-10-31T10:49:45.245Z,88.00
2022-10-31T10:52:02.195Z,87.90
2022-10-31T10:55:16.974Z,88.00
2022-10-31T10:57:40.830Z,88.00
2022-10-31T10:59:44.053Z,88.20
2022-10-31T11:01:47.551Z,88.10
2022-10-31T11:03:50.485Z,88.30
2022-10-31T11:05:59.843Z,88.20
2022-10-31T11:08:03.234Z,88.40
2022-10-31T11:10:14.118Z,88.70
2022-10-31T11:12:24.227Z,88.80
2022-10-31T11:14:32.478Z,88.80
2022-10-31T11:16:41.421Z,89.10
2022-10-31T11:18:47.383Z,89.10
2022-10-31T11:20:54.170Z,89.00
2022-10-31T11:23:06.349Z,89.10
2022-10-31T11:25:23.361Z,89.10
2022-10-31T11:27:28.389Z,89.00
2022-10-31T11:29:32.762Z,89.10
2022-10-31T11:31:37.564Z,89.00
2022-10-31T11:33:47.688Z,88.90
2022-10-31T11:35:53.589Z,88.90
2022-10-31T11:38:03.335Z,89.10
2022-10-31T11:40:09.148Z,88.90
2022-10-31T11:42:12.183Z,88.70
2022-10-31T11:44:19.897Z,88.40
2022-10-31T11:46:31.228Z,88.50
2022-10-31T11:48:34.141Z,88.40
2022-10-31T11:50:41.156Z,88.00
2022-10-31T11:52:44.396Z,88.20
2022-10-31T11:54:51.703Z,88.10
2022-10-31T11:56:54.656Z,88.10
2022-10-31T11:58:58.930Z,88.20
2022-10-31T12:01:02.201Z,88.00
2022-10-31T12:03:29.696Z,87.80
2022-10-31T12:05:33.967Z,87.70
2022-10-31T12:07:36.856Z,87.60
2022-10-31T12:09:41.902Z,87.20
2022-10-31T12:11:55.959Z,87.20
2022-10-31T12:14:14.017Z,87.10
2022-10-31T12:16:22.259Z,87.30
2022-10-31T12:18:39.276Z,87.20
2022-10-31T12:20:54.410Z,87.00
2022-10-31T12:23:05.657Z,87.20
2022-10-31T12:25:23.899Z,87.20
2022-10-31T12:27:36.761Z,87.10
2022-10-31T12:30:01.388Z,87.10
2022-10-31T12:32:19.856Z,86.70
2022-10-31T12:34:48.606Z,86.40
2022-10-31T12:37:01.545Z,86.50
2022-10-31T12:39:34.960Z,86.60
2022-10-31T12:41:48.131Z,86.30
2022-10-31T12:43:58.375Z,85.90
2022-10-31T12:46:02.481Z,86.00
2022-10-31T12:48:27.861Z,85.40
2022-10-31T12:50:55.412Z,85.50
2022-10-31T12:53:15.753Z,85.30
2022-10-31T12:55:34.078Z,85.50
2022-10-31T12:57:41.559Z,85.60
2022-10-31T12:59:48.191Z,85.20
2022-10-31T13:01:57.120Z,85.30
2022-10-31T13:04:05.017Z,85.30
2022-10-31T13:06:15.027Z,85.00
2022-10-31T13:08:21.611Z,85.30
2022-10-31T13:10:28.990Z,84.10
2022-10-31T13:12:37.538Z,83.40
2022-10-31T13:14:44.707Z,83.50
2022-10-31T13:16:49.848Z,83.70
2022-10-31T13:18:57.489Z,83.30
2022-10-31T13:21:04.540Z,83.20
2022-10-31T13:23:48.485Z,83.00
2022-10-31T13:25:49.902Z,82.90
2022-10-31T13:27:57.436Z,82.70
2022-10-31T13:30:04.482Z,82.50
2022-10-31T13:32:11.566Z,82.50
2022-10-31T13:34:24.813Z,82.50
2022-10-31T13:36:35.361Z,82.40
2022-10-31T13:38:46.284Z,82.40
2022-10-31T13:40:56.890Z,82.60
2022-10-31T13:43:04.956Z,82.70
2022-10-31T13:45:15.592Z,82.50
2022-10-31T13:47:27.425Z,82.40
2022-10-31T13:49:41.124Z,82.60
2022-10-31T13:51:43.946Z,82.70
2022-10-31T13:54:00.046Z,82.80
2022-10-31T13:56:12.669Z,82.80
2022-10-31T13:58:30.424Z,82.80
2022-10-31T14:00:35.942Z,82.80
2022-10-31T14:02:39.169Z,82.50
2022-10-31T14:04:49.967Z,82.30
2022-10-31T14:07:00.054Z,82.30
2022-10-31T14:09:04.634Z,82.20
2022-10-31T14:11:09.408Z,82.40
2022-10-31T14:13:19.506Z,82.50
2022-10-31T14:15:25.434Z,82.50
2022-10-31T14:17:33.838Z,82.30
2022-10-31T14:19:36.806Z,82.50
2022-10-31T14:21:42.471Z,82.30
2022-10-31T14:23:48.320Z,82.50
2022-10-31T14:25:55.043Z,82.60
2022-10-31T14:27:59.298Z,82.20
2022-10-31T14:30:16.712Z,82.30
2022-10-31T14:32:24.353Z,82.50
2022-10-31T14:34:31.949Z,82.60
2022-10-31T14:36:44.109Z,82.60
2022-10-31T14:38:57.144Z,82.60
2022-10-31T14:41:25.285Z,82.60
2022-10-31T14:43:47.282Z,82.40
2022-10-31T14:45:59.959Z,82.60
2022-10-31T14:48:15.751Z,82.40
2022-10-31T14:50:47.715Z,82.40
2022-10-31T14:52:55.433Z,82.30
2022-10-31T14:55:02.916Z,82.40
2022-10-31T14:57:17.036Z,82.50
2022-10-31T14:59:24.687Z,82.70
2022-10-31T15:01:30.675Z,82.80
2022-10-31T15:03:37.167Z,82.70
2022-10-31T15:05:44.668Z,82.80
2022-10-31T15:07:52.666Z,82.80
2022-10-31T15:09:59.278Z,82.80
2022-10-31T15:12:02.733Z,82.70
2022-10-31T15:14:26.185Z,82.90
2022-10-31T15:18:49.717Z,82.70
2022-10-31T15:20:55.278Z,82.90
2022-10-31T15:23:00.133Z,83.00
2022-10-31T15:25:04.165Z,82.90
2022-10-31T15:27:12.641Z,83.10
2022-10-31T15:29:22.320Z,83.20
2022-10-31T15:31:25.449Z,83.20
2022-10-31T15:33:38.642Z,83.10
2022-10-31T15:35:42.950Z,83.10
2022-10-31T15:37:47.068Z,83.10
2022-10-31T15:39:52.567Z,83.20
2022-10-31T15:41:57.362Z,83.20
2022-10-31T15:44:05.253Z,83.30
2022-10-31T15:46:11.458Z,83.40
2022-10-31T15:48:19.321Z,83.30
2022-10-31T15:50:28.707Z,83.50
2022-10-31T15:52:36.634Z,83.50
2022-10-31T15:54:48.068Z,83.60
2022-10-31T15:56:51.374Z,83.70
2022-10-31T15:58:56.292Z,83.70
2022-10-31T16:01:00.807Z,83.90
2022-10-31T16:03:08.194Z,83.90
2022-10-31T16:05:19.534Z,84.10
2022-10-31T16:07:23.867Z,84.10
2022-10-31T16:09:27.251Z,84.30
2022-10-31T16:11:39.505Z,84.20
2022-10-31T16:13:54.161Z,84.30
2022-10-31T16:16:21.636Z,84.40
2022-10-31T16:18:25.810Z,84.30
2022-10-31T16:20:33.221Z,84.30
2022-10-31T16:22:39.942Z,84.40
2022-10-31T16:24:48.752Z,84.40
2022-10-31T16:26:54.068Z,84.40
2022-10-31T16:29:04.900Z,84.70
2022-10-31T16:31:16.620Z,84.70
2022-10-31T16:33:28.650Z,85.00
2022-10-31T16:35:35.592Z,85.20
2022-10-31T16:37:39.845Z,85.40
2022-10-31T16:39:42.711Z,85.40
2022-10-31T16:41:47.352Z,85.30
2022-10-31T16:43:52.554Z,85.40
2022-10-31T16:45:56.151Z,85.30
2022-10-31T16:48:05.561Z,85.30
2022-10-31T16:50:15.693Z,85.50
2022-10-31T16:52:19.190Z,85.40
2022-10-31T16:54:22.387Z,85.40
2022-10-31T16:56:29.567Z,85.40
2022-10-31T16:58:34.615Z,85.40
2022-10-31T17:00:38.126Z,85.40
2022-10-31T17:02:41.116Z,85.20
2022-10-31T17:04:44.576Z,85.50
2022-10-31T17:06:49.077Z,85.70
2022-10-31T17:08:52.026Z,85.70
2022-10-31T17:10:57.352Z,85.60
2022-10-31T17:13:00.996Z,85.70
2022-10-31T17:15:05.620Z,85.70
2022-10-31T17:17:10.145Z,85.70
2022-10-31T17:19:13.245Z,85.50
2022-10-31T17:21:20.471Z,85.50
2022-10-31T17:23:24.843Z,85.70
2022-10-31T17:25:31.794Z,85.80
2022-10-31T17:27:35.048Z,86.00
2022-10-31T17:29:37.890Z,86.20
2022-10-31T17:31:40.792Z,86.30
2022-10-31T17:33:44.215Z,86.30
2022-10-31T17:35:47.080Z,86.40
2022-10-31T17:37:50.122Z,86.60
2022-10-31T17:39:54.344Z,86.80
2022-10-31T17:41:57.275Z,86.90
2022-10-31T17:44:00.829Z,86.80
2022-10-31T17:46:04.096Z,86.90
2022-10-31T17:48:07.719Z,86.80
2022-10-31T17:50:11.483Z,87.00
2022-10-31T17:52:15.042Z,87.10
2022-10-31T17:54:22.626Z,87.40
2022-10-31T17:56:27.092Z,87.60
2022-10-31T17:58:30.591Z,87.60
2022-10-31T18:00:33.749Z,87.60
2022-10-31T18:02:37.886Z,87.60
2022-10-31T18:04:41.556Z,87.70
2022-10-31T18:06:44.453Z,87.80
2022-10-31T18:08:47.354Z,87.70
2022-10-31T18:10:50.301Z,88.00
2022-10-31T18:12:54.577Z,88.00
2022-10-31T18:14:57.412Z,87.90
2022-10-31T18:17:00.521Z,87.90
2022-10-31T18:19:05.427Z,87.80
2022-10-31T18:21:08.582Z,88.00
2022-10-31T18:23:12.612Z,88.10
2022-10-31T18:25:15.500Z,88.00
2022-10-31T18:27:18.344Z,88.00
2022-10-31T18:29:22.599Z,88.00
2022-10-31T18:31:26.124Z,88.00
2022-10-31T18:33:29.362Z,88.00
2022-10-31T18:35:32.196Z,87.90
2022-10-31T18:37:35.089Z,87.90
2022-10-31T18:39:37.974Z,87.90
2022-10-31T18:41:41.918Z,87.90
2022-10-31T18:43:45.035Z,88.00
2022-10-31T18:45:52.294Z,88.10
2022-10-31T18:47:58.266Z,88.20
2022-10-31T18:50:01.264Z,88.10
2022-10-31T18:52:04.769Z,88.40
2022-10-31T18:54:07.915Z,88.50
2022-10-31T18:56:12.329Z,88.50
2022-10-31T18:58:15.231Z,88.70
2022-10-31T19:00:18.855Z,88.70
2022-10-31T19:02:23.115Z,88.90
2022-10-31T19:04:26.085Z,89.60
2022-10-31T19:06:30.852Z,89.00
2022-10-31T19:08:34.179Z,88.90
2022-10-31T19:10:37.794Z,89.00
2022-10-31T19:12:40.592Z,89.00
2022-10-31T19:14:43.428Z,89.00
2022-10-31T19:16:46.319Z,89.00
2022-10-31T19:18:54.097Z,89.00
2022-10-31T19:20:57.138Z,89.20
2022-10-31T19:23:00.440Z,89.20
2022-10-31T19:25:07.609Z,89.40
2022-10-31T19:27:13.233Z,89.50
2022-10-31T19:29:16.448Z,89.70
2022-10-31T19:31:19.920Z,89.80
2022-10-31T19:33:22.841Z,89.80
2022-10-31T19:35:28.266Z,89.80
2022-10-31T19:37:31.160Z,90.10
2022-10-31T19:39:34.290Z,90.20
2022-10-31T19:41:37.521Z,90.20
2022-10-31T19:43:40.449Z,90.30
2022-10-31T19:45:55.269Z,90.20
2022-10-31T19:47:58.314Z,90.30
2022-10-31T19:50:01.454Z,90.20
2022-10-31T19:52:06.136Z,90.30
2022-10-31T19:54:09.162Z,90.30
2022-10-31T19:56:13.697Z,90.20
2022-10-31T19:58:16.880Z,90.20
2022-10-31T20:00:20.012Z,90.20
2022-10-31T20:02:22.897Z,90.30
2022-10-31T20:04:26.170Z,90.40
2022-10-31T20:06:31.549Z,90.40
2022-10-31T20:08:39.444Z,90.60
2022-10-31T20:10:42.673Z,90.70
2022-10-31T20:12:45.642Z,90.70
2022-10-31T20:14:51.228Z,90.70
2022-10-31T20:16:55.375Z,90.80
2022-10-31T20:18:59.550Z,90.70
2022-10-31T20:21:04.966Z,90.70
2022-10-31T20:23:08.211Z,90.70
2022-10-31T20:25:12.561Z,90.60
2022-10-31T20:27:15.414Z,90.60
2022-10-31T20:29:19.435Z,90.90
2022-10-31T20:31:24.092Z,90.70
2022-10-31T20:33:27.287Z,90.60
2022-10-31T20:35:30.104Z,90.60
2022-10-31T20:37:33.054Z,90.50
2022-10-31T20:39:36.676Z,90.40
2022-10-31T20:41:41.092Z,90.50
2022-10-31T20:43:44.872Z,90.50
2022-10-31T20:45:48.433Z,90.80
2022-10-31T20:47:51.593Z,90.50
2022-10-31T20:49:54.766Z,90.40
2022-10-31T20:51:57.913Z,90.40
2022-10-31T20:54:01.952Z,90.40
2022-10-31T20:56:07.501Z,90.40
2022-10-31T20:58:12.101Z,90.40
2022-10-31T21:00:15.460Z,90.30
2022-10-31T21:02:18.657Z,90.30
2022-10-31T21:04:21.742Z,90.40
2022-10-31T21:06:25.213Z,90.40
2022-10-31T21:08:30.138Z,90.40
2022-10-31T21:10:33.045Z,90.40
2022-10-31T21:12:36.143Z,90.20
2022-10-31T21:14:40.446Z,90.20
2022-10-31T21:16:43.305Z,90.20
2022-10-31T21:18:47.406Z,90.30
2022-10-31T21:20:50.211Z,90.30
2022-10-31T21:22:54.547Z,90.30
2022-10-31T21:24:57.569Z,90.30
2022-10-31T21:27:02.116Z,90.20
2022-10-31T21:29:07.646Z,90.20
2022-10-31T21:31:14.342Z,90.30
2022-10-31T21:33:17.217Z,90.30
2022-10-31T21:35:20.102Z,90.20
2022-10-31T21:37:22.964Z,90.20
2022-10-31T21:39:25.849Z,90.20
2022-10-31T21:41:28.856Z,90.20
2022-10-31T21:43:32.257Z,90.20
2022-10-31T21:45:35.168Z,90.20
2022-10-31T21:47:39.418Z,90.20
2022-10-31T21:49:42.505Z,90.20
2022-10-31T21:51:46.842Z,90.20
2022-10-31T21:54:07.653Z,90.50
2022-10-31T21:56:10.529Z,90.30
2022-10-31T21:58:13.610Z,90.30
2022-10-31T22:00:16.881Z,90.40
2022-10-31T22:02:19.836Z,90.50
2022-10-31T22:04:24.440Z,90.40
2022-10-31T22:06:29.962Z,90.40
2022-10-31T22:08:33.235Z,90.50
2022-10-31T22:10:36.115Z,90.90
2022-10-31T22:12:39.003Z,90.50
2022-10-31T22:16:46.043Z,90.60
2022-10-31T22:18:53.033Z,90.70
2022-10-31T22:21:02.273Z,90.70
2022-10-31T22:23:07.628Z,90.80
2022-10-31T22:25:10.980Z,90.80
2022-10-31T22:27:13.842Z,90.90
2022-10-31T22:29:18.421Z,91.00
2022-10-31T22:31:23.384Z,91.10
2022-10-31T22:33:26.886Z,91.20
2022-10-31T22:35:29.769Z,91.20
2022-10-31T22:37:34.223Z,91.50
2022-10-31T22:39:37.093Z,91.30
2022-10-31T22:41:40.120Z,91.40
2022-10-31T22:43:43.122Z,91.40
2022-10-31T22:45:55.296Z,91.40
2022-10-31T22:47:58.407Z,91.40
2022-10-31T22:50:01.472Z,91.40
2022-10-31T22:52:05.463Z,91.50
2022-10-31T22:54:13.856Z,91.50
2022-10-31T22:56:18.668Z,91.50
2022-10-31T22:58:21.675Z,91.50
2022-10-31T23:00:24.652Z,91.40
2022-10-31T23:02:28.868Z,91.20
2022-10-31T23:04:31.775Z,91.20
2022-10-31T23:06:34.713Z,91.30
2022-10-31T23:08:39.145Z,91.20
2022-10-31T23:10:44.231Z,91.20
2022-10-31T23:13:04.557Z,91.20
2022-10-31T23:15:08.309Z,91.00
2022-10-31T23:17:17.510Z,91.00
2022-10-31T23:19:22.552Z,90.90
2022-10-31T23:21:43.226Z,91.00
2022-10-31T23:23:46.085Z,91.00
2022-10-31T23:26:07.648Z,91.00
2022-10-31T23:28:10.532Z,90.90
2022-10-31T23:30:13.645Z,90.80
2022-10-31T23:32:19.934Z,90.80
2022-10-31T23:34:23.051Z,90.80
2022-10-31T23:36:25.980Z,90.90
2022-10-31T23:38:29.059Z,91.00
2022-10-31T23:40:31.895Z,91.00
2022-10-31T23:42:36.188Z,91.30
2022-10-31T23:44:39.064Z,91.40
2022-10-31T23:46:41.948Z,91.40
2022-10-31T23:48:47.971Z,91.50
2022-10-31T23:50:50.866Z,91.40
2022-10-31T23:52:53.741Z,91.40
2022-10-31T23:54:56.664Z,91.50
2022-10-31T23:56:59.612Z,91.60
2022-10-31T23:59:04.517Z,91.60
